createdAt,value
2023-04-09T00:01:33.714Z,101590.56
2023-04-09T00:04:00.994Z,101592.50
2023-04-09T00:06:27.752Z,101589.22
2023-04-09T00:08:54.515Z,101596.44
2023-04-09T00:11:21.603Z,101590.06
2023-04-09T00:13:48.183Z,101585.63
2023-04-09T00:16:14.787Z,101582.84
2023-04-09T00:18:41.874Z,101593.94
2023-04-09T00:21:08.891Z,101591.47
2023-04-09T00:23:36.104Z,101588.38
2023-04-09T00:26:02.687Z,101590.63
2023-04-09T00:28:29.349Z,101584.56
2023-04-09T00:30:57.226Z,101581.81
2023-04-09T00:33:23.845Z,101589.56
2023-04-09T00:35:50.558Z,101575.41
2023-04-09T00:38:17.176Z,101576.84
2023-04-09T00:40:43.861Z,101572.72
2023-04-09T00:43:10.486Z,101576.00
2023-04-09T00:45:37.480Z,101569.63
2023-04-09T00:48:04.442Z,101574.13
2023-04-09T00:50:31.012Z,101564.69
2023-04-09T00:52:57.596Z,101561.91
2023-04-09T00:55:25.107Z,101562.22
2023-04-09T00:57:51.714Z,101558.31
2023-04-09T01:00:18.351Z,101554.13
2023-04-09T01:02:45.236Z,101553.59
2023-04-09T01:05:12.768Z,101551.13
2023-04-09T01:08:01.723Z,101557.50
2023-04-09T01:10:28.272Z,101549.47
2023-04-09T01:13:04.065Z,101549.78
2023-04-09T01:15:36.272Z,101541.44
2023-04-09T01:18:20.587Z,101546.44
2023-04-09T01:20:49.768Z,101542.84
2023-04-09T01:23:19.811Z,101536.72
2023-04-09T01:25:52.445Z,101547.59
2023-04-09T01:28:19.338Z,101537.28
2023-04-09T01:30:50.788Z,101537.91
2023-04-09T01:33:17.988Z,101539.56
2023-04-09T01:35:46.602Z,101539.84
2023-04-09T01:38:14.348Z,101534.00
2023-04-09T01:40:41.025Z,101534.59
2023-04-09T01:43:08.683Z,101537.69
2023-04-09T01:45:35.232Z,101538.25
2023-04-09T01:48:03.414Z,101536.00
2023-04-09T01:50:30.304Z,101535.78
2023-04-09T01:52:57.091Z,101538.53
2023-04-09T01:55:23.783Z,101533.00
2023-04-09T01:57:50.436Z,101534.41
2023-04-09T02:00:17.158Z,101527.25
2023-04-09T02:03:08.009Z,101518.94
2023-04-09T02:05:37.376Z,101528.34
2023-04-09T02:08:06.836Z,101532.72
2023-04-09T02:10:35.843Z,101532.72
2023-04-09T02:13:05.733Z,101525.50
2023-04-09T02:15:34.497Z,101526.69
2023-04-09T02:18:01.654Z,101525.06
2023-04-09T02:20:28.393Z,101520.63
2023-04-09T02:22:55.085Z,101521.72
2023-04-09T02:25:22.584Z,101520.09
2023-04-09T02:27:49.261Z,101520.09
2023-04-09T02:30:15.972Z,101524.81
2023-04-09T02:32:42.484Z,101524.28
2023-04-09T02:35:09.186Z,101527.06
2023-04-09T02:37:35.710Z,101511.81
2023-04-09T02:40:02.161Z,101516.25
2023-04-09T02:42:28.671Z,101515.72
2023-04-09T02:44:55.671Z,101517.66
2023-04-09T02:47:23.198Z,101524.31
2023-04-09T02:49:49.981Z,101520.19
2023-04-09T02:52:16.484Z,101516.31
2023-04-09T02:54:43.048Z,101521.03
2023-04-09T02:57:09.656Z,101513.03
2023-04-09T02:59:36.166Z,101518.56
2023-04-09T03:02:02.975Z,101514.13
2023-04-09T03:04:29.625Z,101508.59
2023-04-09T03:06:56.252Z,101509.69
2023-04-09T03:09:22.836Z,101509.16
2023-04-09T03:11:49.496Z,101513.06
2023-04-09T03:14:16.166Z,101505.56
2023-04-09T03:16:44.316Z,101504.22
2023-04-09T03:19:10.871Z,101504.22
2023-04-09T03:21:37.336Z,101506.16
2023-04-09T03:24:05.263Z,101503.69
2023-04-09T03:26:36.168Z,101508.09
2023-04-09T03:29:05.761Z,101500.38
2023-04-09T03:31:32.933Z,101499.25
2023-04-09T03:33:59.560Z,101498.75
2023-04-09T03:36:28.235Z,101492.94
2023-04-09T03:39:09.425Z,101497.66
2023-04-09T03:41:39.186Z,101491.00
2023-04-09T03:44:10.490Z,101491.28
2023-04-09T03:46:54.727Z,101495.19
2023-04-09T03:49:21.411Z,101500.19
2023-04-09T03:51:48.035Z,101494.66
2023-04-09T03:54:15.278Z,101497.41
2023-04-09T03:56:42.294Z,101495.78
2023-04-09T03:59:12.164Z,101500.50
2023-04-09T04:01:41.904Z,101496.06
2023-04-09T04:04:09.496Z,101496.88
2023-04-09T04:06:56.605Z,101495.53
2023-04-09T04:09:43.316Z,101501.06
2023-04-09T04:12:14.171Z,101496.13
2023-04-09T04:15:01.163Z,101498.88
2023-04-09T04:17:38.937Z,101494.44
2023-04-09T04:20:24.263Z,101499.47
2023-04-09T04:23:00.820Z,101496.69
2023-04-09T04:25:27.626Z,101489.50
2023-04-09T04:27:55.662Z,101498.94
2023-04-09T04:30:27.928Z,101488.69
2023-04-09T04:33:00.063Z,101487.88
2023-04-09T04:35:30.924Z,101490.13
2023-04-09T04:38:01.618Z,101493.41
2023-04-09T04:40:29.050Z,101498.66
2023-04-09T04:43:00.174Z,101493.13
2023-04-09T04:45:27.304Z,101494.81
2023-04-09T04:47:59.815Z,101494.53
2023-04-09T04:50:27.038Z,101489.84
2023-04-09T04:52:59.129Z,101496.19
2023-04-09T04:55:30.480Z,101499.56
2023-04-09T04:58:00.482Z,101491.25
2023-04-09T05:00:32.128Z,101487.91
2023-04-09T05:03:01.983Z,101490.09
2023-04-09T05:05:53.025Z,101489.59
2023-04-09T05:08:20.732Z,101484.03
2023-04-09T05:10:51.275Z,101494.03
2023-04-09T05:13:19.660Z,101482.97
2023-04-09T05:15:46.403Z,101490.16
2023-04-09T05:18:12.974Z,101488.50
2023-04-09T05:20:39.701Z,101489.06
2023-04-09T05:23:12.656Z,101492.97
2023-04-09T05:25:48.518Z,101481.91
2023-04-09T05:28:23.678Z,101487.44
2023-04-09T05:31:00.980Z,101476.38
2023-04-09T05:33:27.634Z,101482.50
2023-04-09T05:35:54.186Z,101482.19
2023-04-09T05:38:20.776Z,101475.84
2023-04-09T05:40:54.913Z,101478.63
2023-04-09T05:43:21.958Z,101482.50
2023-04-09T05:45:48.576Z,101481.97
2023-04-09T05:48:15.166Z,101486.38
2023-04-09T05:50:53.730Z,101487.19
2023-04-09T05:53:23.250Z,101483.59
2023-04-09T05:55:49.932Z,101483.59
2023-04-09T05:58:21.680Z,101490.28
2023-04-09T06:00:48.931Z,101487.78
2023-04-09T06:03:15.800Z,101503.56
2023-04-09T06:05:42.653Z,101502.72
2023-04-09T06:08:09.311Z,101499.69
2023-04-09T06:10:36.339Z,101497.19
2023-04-09T06:13:02.810Z,101507.47
2023-04-09T06:15:29.735Z,101505.50
2023-04-09T06:17:58.881Z,101503.56
2023-04-09T06:20:26.127Z,101501.91
2023-04-09T06:22:52.697Z,101505.22
2023-04-09T06:25:19.549Z,101507.47
2023-04-09T06:27:46.444Z,101504.38
2023-04-09T06:30:13.110Z,101509.09
2023-04-09T06:32:51.086Z,101506.31
2023-04-09T06:35:20.597Z,101503.56
2023-04-09T06:37:47.182Z,101514.63
2023-04-09T06:40:14.224Z,101513.00
2023-04-09T06:42:41.033Z,101512.16
2023-04-09T06:45:31.365Z,101516.88
2023-04-09T06:47:58.610Z,101512.16
2023-04-09T06:50:25.287Z,101520.16
2023-04-09T06:52:51.932Z,101523.50
2023-04-09T06:55:18.753Z,101523.75
2023-04-09T06:57:45.271Z,101522.34
2023-04-09T07:00:12.287Z,101515.19
2023-04-09T07:02:39.244Z,101526.78
2023-04-09T07:05:06.210Z,101525.94
2023-04-09T07:07:32.906Z,101530.09
2023-04-09T07:09:59.642Z,101531.75
2023-04-09T07:12:29.905Z,101532.00
2023-04-09T07:15:03.228Z,101531.75
2023-04-09T07:17:31.045Z,101527.31
2023-04-09T07:19:57.721Z,101532.28
2023-04-09T07:22:25.560Z,101533.38
2023-04-09T07:24:55.791Z,101532.78
2023-04-09T07:27:22.327Z,101538.91
2023-04-09T07:29:49.031Z,101542.25
2023-04-09T07:32:16.417Z,101549.19
2023-04-09T07:34:43.545Z,101549.41
2023-04-09T07:37:10.188Z,101553.31
2023-04-09T07:39:36.851Z,101547.78
2023-04-09T07:42:04.631Z,101553.00
2023-04-09T07:44:37.685Z,101545.53
2023-04-09T07:47:05.086Z,101549.97
2023-04-09T07:49:31.865Z,101550.50
2023-04-09T07:51:59.342Z,101548.56
2023-04-09T07:54:25.943Z,101548.03
2023-04-09T07:56:52.631Z,101547.41
2023-04-09T07:59:19.336Z,101546.06
2023-04-09T08:01:46.180Z,101543.03
2023-04-09T08:04:13.800Z,101543.28
2023-04-09T08:06:41.349Z,101543.84
2023-04-09T08:09:07.876Z,101541.09
2023-04-09T08:11:35.311Z,101548.25
2023-04-09T08:14:03.681Z,101542.72
2023-04-09T08:16:30.573Z,101538.84
2023-04-09T08:18:57.383Z,101543.28
2023-04-09T08:21:23.948Z,101538.00
2023-04-09T08:23:51.282Z,101543.28
2023-04-09T08:26:17.975Z,101544.91
2023-04-09T08:28:44.538Z,101546.84
2023-04-09T08:31:11.094Z,101542.44
2023-04-09T08:33:37.792Z,101546.03
2023-04-09T08:36:08.161Z,101544.91
2023-04-09T08:38:34.810Z,101546.59
2023-04-09T08:41:01.469Z,101537.44
2023-04-09T08:43:37.406Z,101549.38
2023-04-09T08:46:15.742Z,101543.84
2023-04-09T08:48:46.631Z,101547.69
2023-04-09T08:51:15.666Z,101544.66
2023-04-09T08:54:03.252Z,101547.13
2023-04-09T08:56:39.819Z,101538.81
2023-04-09T08:59:06.345Z,101537.72
2023-04-09T09:01:33.446Z,101537.72
2023-04-09T09:04:00.407Z,101534.13
2023-04-09T09:06:29.351Z,101532.19
2023-04-09T09:09:02.847Z,101537.72
2023-04-09T09:11:30.542Z,101541.31
2023-04-09T09:13:57.760Z,101524.97
2023-04-09T09:16:24.572Z,101531.59
2023-04-09T09:18:53.248Z,101535.47
2023-04-09T09:21:20.002Z,101535.47
2023-04-09T09:23:48.431Z,101535.19
2023-04-09T09:26:19.119Z,101531.59
2023-04-09T09:28:48.591Z,101527.69
2023-04-09T09:31:16.411Z,101526.06
2023-04-09T09:33:43.044Z,101518.28
2023-04-09T09:36:09.741Z,101524.91
2023-04-09T09:38:53.622Z,101522.72
2023-04-09T09:41:20.987Z,101520.78
2023-04-09T09:43:48.335Z,101519.63
2023-04-09T09:46:15.493Z,101512.47
2023-04-09T09:48:42.592Z,101515.22
2023-04-09T09:51:09.967Z,101509.38
2023-04-09T09:53:37.701Z,101508.28
2023-04-09T09:56:05.608Z,101508.28
2023-04-09T09:58:36.888Z,101504.09
2023-04-09T10:01:07.001Z,101506.03
2023-04-09T10:03:34.858Z,101503.78
2023-04-09T10:06:02.914Z,101502.16
2023-04-09T10:08:30.519Z,101498.25
2023-04-09T10:10:57.293Z,101498.25
2023-04-09T10:13:32.276Z,101495.47
2023-04-09T10:15:59.091Z,101498.81
2023-04-09T10:18:26.383Z,101496.81
2023-04-09T10:21:05.751Z,101492.13
2023-04-09T10:23:38.533Z,101497.66
2023-04-09T10:26:05.936Z,101495.41
2023-04-09T10:28:32.405Z,101492.38
2023-04-09T10:30:59.589Z,101484.06
2023-04-09T10:33:27.107Z,101486.50
2023-04-09T10:35:55.159Z,101485.41
2023-04-09T10:38:37.956Z,101479.03
2023-04-09T10:41:30.842Z,101474.84
2023-04-09T10:43:57.642Z,101473.75
2023-04-09T10:46:28.603Z,101475.41
2023-04-09T10:49:07.814Z,101474.00
2023-04-09T10:51:41.843Z,101465.38
2023-04-09T10:54:27.437Z,101473.41
2023-04-09T10:57:09.257Z,101460.38
2023-04-09T10:59:36.471Z,101464.78
2023-04-09T11:02:07.106Z,101461.72
2023-04-09T11:04:54.029Z,101455.34
2023-04-09T11:07:22.319Z,101443.69
2023-04-09T11:09:48.921Z,101449.75
2023-04-09T11:12:15.532Z,101448.63
2023-04-09T11:14:42.205Z,101443.09
2023-04-09T11:17:08.729Z,101448.63
2023-04-09T11:19:35.617Z,101439.19
2023-04-09T11:22:04.903Z,101435.81
2023-04-09T11:24:40.206Z,101433.28
2023-04-09T11:27:06.780Z,101434.94
2023-04-09T11:29:35.052Z,101429.09
2023-04-09T11:32:02.571Z,101432.69
2023-04-09T11:34:29.270Z,101425.72
2023-04-09T11:36:56.979Z,101431.28
2023-04-09T11:39:23.475Z,101435.72
2023-04-09T11:41:50.294Z,101432.34
2023-04-09T11:44:16.954Z,101430.09
2023-04-09T11:46:44.110Z,101422.28
2023-04-09T11:49:10.968Z,101418.41
2023-04-09T11:51:37.717Z,101416.16
2023-04-09T11:54:07.942Z,101408.38
2023-04-09T11:56:36.242Z,101421.09
2023-04-09T11:59:03.375Z,101419.47
2023-04-09T12:01:33.225Z,101424.44
2023-04-09T12:04:00.831Z,101426.06
2023-04-09T12:06:28.024Z,101428.81
2023-04-09T12:08:56.265Z,101418.28
2023-04-09T12:11:28.121Z,101428.75
2023-04-09T12:14:02.784Z,101422.91
2023-04-09T12:16:32.651Z,101423.44
2023-04-09T12:19:02.657Z,101425.94
2023-04-09T12:21:48.061Z,101416.47
2023-04-09T12:24:15.441Z,101420.31
2023-04-09T12:26:42.080Z,101419.19
2023-04-09T12:29:08.696Z,101417.75
2023-04-09T12:31:36.168Z,101417.16
2023-04-09T12:34:02.929Z,101418.28
2023-04-09T12:36:32.269Z,101412.13
2023-04-09T12:38:58.859Z,101414.59
2023-04-09T12:41:25.553Z,101411.81
2023-04-09T12:43:52.374Z,101415.13
2023-04-09T12:46:20.017Z,101418.41
2023-04-09T12:48:46.796Z,101414.53
2023-04-09T12:51:13.869Z,101408.38
2023-04-09T12:53:40.926Z,101405.63
2023-04-09T12:56:07.775Z,101399.75
2023-04-09T12:58:34.329Z,101403.03
2023-04-09T13:01:01.451Z,101396.69
2023-04-09T13:03:29.179Z,101401.91
2023-04-09T13:05:56.546Z,101394.44
2023-04-09T13:08:23.132Z,101396.88
2023-04-09T13:10:49.782Z,101392.16
2023-04-09T13:13:16.555Z,101391.34
2023-04-09T13:15:46.316Z,101399.38
2023-04-09T13:18:13.378Z,101396.09
2023-04-09T13:20:40.349Z,101390.53
2023-04-09T13:23:06.916Z,101390.53
2023-04-09T13:25:33.558Z,101383.03
2023-04-09T13:28:00.310Z,101384.38
2023-04-09T13:30:26.824Z,101389.31
2023-04-09T13:32:53.490Z,101379.59
2023-04-09T13:35:20.155Z,101377.59
2023-04-09T13:37:49.453Z,101380.09
2023-04-09T13:40:16.466Z,101377.88
2023-04-09T13:42:42.982Z,101373.13
2023-04-09T13:45:09.764Z,101367.00
2023-04-09T13:47:36.711Z,101365.88
2023-04-09T13:50:03.802Z,101361.66
2023-04-09T13:52:31.788Z,101348.81
2023-04-09T13:54:58.429Z,101350.16
2023-04-09T13:57:24.908Z,101348.41
2023-04-09T13:59:51.624Z,101352.25
2023-04-09T14:02:19.231Z,101353.88
2023-04-09T14:04:45.968Z,101351.59
2023-04-09T14:07:12.582Z,101346.06
2023-04-09T14:09:39.162Z,101350.38
2023-04-09T14:12:05.909Z,101345.38
2023-04-09T14:14:32.679Z,101340.94
2023-04-09T14:16:59.342Z,101336.44
2023-04-09T14:19:25.903Z,101326.13
2023-04-09T14:21:53.347Z,101327.50
2023-04-09T14:24:22.968Z,101324.09
2023-04-09T14:26:51.424Z,101325.13
2023-04-09T14:29:18.022Z,101331.50
2023-04-09T14:31:44.783Z,101328.41
2023-04-09T14:34:11.369Z,101318.97
2023-04-09T14:36:37.884Z,101322.25
2023-04-09T14:39:04.579Z,101318.84
2023-04-09T14:41:34.213Z,101324.94
2023-04-09T14:44:00.931Z,101315.47
2023-04-09T14:46:27.739Z,101317.63
2023-04-09T14:48:54.787Z,101310.94
2023-04-09T14:51:21.672Z,101315.88
2023-04-09T14:53:48.620Z,101323.59
2023-04-09T14:56:15.197Z,101319.66
2023-04-09T14:58:41.764Z,101313.00
2023-04-09T15:01:08.439Z,101304.66
2023-04-09T15:03:35.433Z,101303.53
2023-04-09T15:06:02.279Z,101302.91
2023-04-09T15:08:28.913Z,101306.19
2023-04-09T15:10:55.516Z,101306.19
2023-04-09T15:13:22.285Z,101314.22
2023-04-09T15:15:48.953Z,101311.16
2023-04-09T15:18:15.630Z,101307.75
2023-04-09T15:20:43.393Z,101301.69
2023-04-09T15:23:10.777Z,101294.97
2023-04-09T15:25:37.510Z,101297.13
2023-04-09T15:28:04.395Z,101293.22
2023-04-09T15:30:31.180Z,101290.97
2023-04-09T15:32:57.714Z,101291.78
2023-04-09T15:35:25.034Z,101288.69
2023-04-09T15:37:51.821Z,101279.22
2023-04-09T15:40:18.708Z,101270.88
2023-04-09T15:42:45.277Z,101271.38
2023-04-09T15:45:13.129Z,101274.69
2023-04-09T15:47:39.657Z,101261.31
2023-04-09T15:50:06.713Z,101261.31
2023-04-09T15:52:33.463Z,101257.91
2023-04-09T15:54:59.978Z,101261.19
2023-04-09T15:57:26.591Z,101261.50
2023-04-09T15:59:53.118Z,101249.78
2023-04-09T16:02:19.978Z,101245.63
2023-04-09T16:04:46.737Z,101256.13
2023-04-09T16:07:16.604Z,101256.97
2023-04-09T16:09:43.319Z,101257.78
2023-04-09T16:12:10.133Z,101259.44
2023-04-09T16:14:37.027Z,101251.59
2023-04-09T16:17:03.835Z,101257.16
2023-04-09T16:19:30.621Z,101253.56
2023-04-09T16:21:57.629Z,101251.59
2023-04-09T16:24:24.124Z,101251.59
2023-04-09T16:26:50.825Z,101247.69
2023-04-09T16:29:17.844Z,101251.81
2023-04-09T16:31:44.540Z,101249.31
2023-04-09T16:34:11.327Z,101249.31
2023-04-09T16:36:38.073Z,101243.75
2023-04-09T16:39:04.973Z,101248.50
2023-04-09T16:41:32.042Z,101243.75
2023-04-09T16:43:58.953Z,101242.63
2023-04-09T16:46:25.641Z,101238.19
2023-04-09T16:48:52.531Z,101245.09
2023-04-09T16:51:19.351Z,101245.41
2023-04-09T16:53:45.952Z,101249.31
2023-04-09T16:56:12.567Z,101258.00
2023-04-09T16:58:39.100Z,101250.78
2023-04-09T17:01:05.776Z,101252.22
2023-04-09T17:03:32.361Z,101238.31
2023-04-09T17:05:58.962Z,101239.97
2023-04-09T17:08:25.653Z,101248.13
2023-04-09T17:10:52.785Z,101240.06
2023-04-09T17:13:19.532Z,101242.84
2023-04-09T17:15:46.182Z,101233.72
2023-04-09T17:18:12.864Z,101232.91
2023-04-09T17:20:39.585Z,101230.81
2023-04-09T17:23:06.661Z,101234.31
2023-04-09T17:25:33.282Z,101228.94
2023-04-09T17:28:01.568Z,101227.25
2023-04-09T17:30:28.206Z,101228.78
2023-04-09T17:32:54.761Z,101224.75
2023-04-09T17:35:21.440Z,101226.75
2023-04-09T17:37:48.058Z,101225.50
2023-04-09T17:40:15.597Z,101224.63
2023-04-09T17:42:42.203Z,101226.81
2023-04-09T17:45:09.159Z,101226.97
2023-04-09T17:47:35.775Z,101232.28
2023-04-09T17:50:02.683Z,101221.34
2023-04-09T17:52:29.965Z,101220.72
2023-04-09T17:54:56.727Z,101223.66
2023-04-09T17:57:23.479Z,101225.59
2023-04-09T17:59:50.198Z,101238.09
2023-04-09T18:02:16.924Z,101232.53
2023-04-09T18:04:43.897Z,101226.13
2023-04-09T18:07:10.713Z,101233.66
2023-04-09T18:09:39.179Z,101236.44
2023-04-09T18:12:06.169Z,101228.09
2023-04-09T18:14:32.691Z,101234.16
2023-04-09T18:16:59.473Z,101230.38
2023-04-09T18:19:26.060Z,101233.97
2023-04-09T18:21:52.541Z,101236.44
2023-04-09T18:24:19.229Z,101232.63
2023-04-09T18:26:45.704Z,101238.19
2023-04-09T18:29:12.670Z,101241.00
2023-04-09T18:31:39.323Z,101238.03
2023-04-09T18:34:06.162Z,101237.22
2023-04-09T18:36:32.680Z,101243.28
2023-04-09T18:38:59.230Z,101238.34
2023-04-09T18:41:26.825Z,101234.56
2023-04-09T18:43:54.005Z,101246.84
2023-04-09T18:46:20.836Z,101243.88
2023-04-09T18:48:47.499Z,101242.88
2023-04-09T18:51:14.792Z,101245.13
2023-04-09T18:53:41.973Z,101248.25
2023-04-09T18:56:09.320Z,101244.94
2023-04-09T18:58:36.407Z,101243.97
2023-04-09T19:01:12.213Z,101244.59
2023-04-09T19:03:39.968Z,101242.44
2023-04-09T19:06:14.317Z,101241.41
2023-04-09T19:08:41.168Z,101246.47
2023-04-09T19:11:08.021Z,101258.56
2023-04-09T19:13:34.974Z,101254.47
2023-04-09T19:16:02.241Z,101259.50
2023-04-09T19:18:29.203Z,101267.34
2023-04-09T19:20:55.816Z,101262.81
2023-04-09T19:23:22.353Z,101262.88
2023-04-09T19:25:53.445Z,101264.69
2023-04-09T19:28:20.222Z,101268.66
2023-04-09T19:30:46.997Z,101264.94
2023-04-09T19:33:13.652Z,101274.81
2023-04-09T19:35:43.258Z,101267.31
2023-04-09T19:38:10.065Z,101267.88
2023-04-09T19:40:36.776Z,101269.41
2023-04-09T19:43:03.348Z,101265.63
2023-04-09T19:45:30.007Z,101273.34
2023-04-09T19:47:56.640Z,101261.56
2023-04-09T19:50:23.325Z,101265.25
2023-04-09T19:52:49.981Z,101264.63
2023-04-09T19:55:16.629Z,101260.03
2023-04-09T19:57:44.302Z,101264.97
2023-04-09T20:00:11.453Z,101263.50
2023-04-09T20:02:39.664Z,101262.16
2023-04-09T20:05:06.489Z,101261.22
2023-04-09T20:07:33.085Z,101265.97
2023-04-09T20:09:59.882Z,101262.19
2023-04-09T20:12:29.438Z,101265.31
2023-04-09T20:14:57.356Z,101260.06
2023-04-09T20:17:24.424Z,101261.03
2023-04-09T20:19:51.365Z,101266.13
2023-04-09T20:22:18.171Z,101265.47
2023-04-09T20:24:44.823Z,101257.75
2023-04-09T20:27:11.298Z,101264.63
2023-04-09T20:29:37.894Z,101259.69
2023-04-09T20:32:04.602Z,101249.38
2023-04-09T20:34:31.569Z,101258.03
2023-04-09T20:36:58.511Z,101250.00
2023-04-09T20:39:26.965Z,101254.13
2023-04-09T20:41:53.905Z,101250.97
2023-04-09T20:44:20.528Z,101254.56
2023-04-09T20:46:47.074Z,101249.94
2023-04-09T20:49:13.649Z,101252.34
2023-04-09T20:51:40.591Z,101258.56
2023-04-09T20:54:07.195Z,101248.06
2023-04-09T20:56:34.502Z,101255.28
2023-04-09T20:59:01.450Z,101255.91
2023-04-09T21:01:28.636Z,101253.78
2023-04-09T21:03:55.428Z,101238.03
2023-04-09T21:06:21.995Z,101238.84
2023-04-09T21:08:48.590Z,101237.84
2023-04-09T21:11:15.471Z,101228.69
2023-04-09T21:13:53.933Z,101239.13
2023-04-09T21:16:21.541Z,101234.19
2023-04-09T21:18:48.933Z,101239.75
2023-04-09T21:21:15.696Z,101232.06
2023-04-09T21:23:42.302Z,101249.88
2023-04-09T21:26:10.108Z,101250.50
2023-04-09T21:28:36.706Z,101250.50
2023-04-09T21:31:03.721Z,101253.63
2023-04-09T21:33:30.785Z,101255.09
2023-04-09T21:35:57.858Z,101247.88
2023-04-09T21:38:24.546Z,101255.09
2023-04-09T21:40:51.295Z,101240.69
2023-04-09T21:43:17.813Z,101242.94
2023-04-09T21:45:44.419Z,101248.50
2023-04-09T21:48:12.392Z,101251.91
2023-04-09T21:50:39.051Z,101256.97
2023-04-09T21:53:05.694Z,101262.53
2023-04-09T21:55:32.345Z,101262.03
2023-04-09T21:57:58.828Z,101264.84
2023-04-09T22:00:25.630Z,101267.09
2023-04-09T22:02:52.584Z,101270.69
2023-04-09T22:05:19.416Z,101273.47
2023-04-09T22:07:45.980Z,101278.53
2023-04-09T22:10:12.523Z,101281.63
2023-04-09T22:12:39.123Z,101284.41
2023-04-09T22:15:05.982Z,101278.03
2023-04-09T22:17:32.752Z,101277.22
2023-04-09T22:19:59.462Z,101284.41
2023-04-09T22:22:26.130Z,101275.56
2023-04-09T22:24:52.842Z,101279.50
2023-04-09T22:27:19.382Z,101274.22
2023-04-09T22:29:46.189Z,101277.00
2023-04-09T22:32:12.764Z,101281.75
2023-04-09T22:34:39.408Z,101282.38
2023-04-09T22:37:07.398Z,101278.47
2023-04-09T22:39:33.984Z,101276.81
2023-04-09T22:42:01.828Z,101276.19
2023-04-09T22:44:28.407Z,101279.31
2023-04-09T22:46:55.063Z,101271.44
2023-04-09T22:49:23.722Z,101277.66
2023-04-09T22:51:50.438Z,101272.91
2023-04-09T22:54:17.103Z,101273.75
2023-04-09T22:56:44.812Z,101276.19
2023-04-09T22:59:11.318Z,101272.41
2023-04-09T23:01:38.041Z,101274.66
2023-04-09T23:04:04.692Z,101266.16
2023-04-09T23:06:31.223Z,101270.06
2023-04-09T23:08:59.793Z,101268.75
2023-04-09T23:11:27.368Z,101272.66
2023-04-09T23:13:54.063Z,101275.44
2023-04-09T23:16:21.072Z,101267.41
2023-04-09T23:18:47.773Z,101267.41
2023-04-09T23:21:14.216Z,101268.88
2023-04-09T23:23:40.876Z,101263.31
2023-04-09T23:26:07.532Z,101260.81
2023-04-09T23:28:34.147Z,101266.38
2023-04-09T23:31:01.198Z,101260.00
2023-04-09T23:33:28.014Z,101260.81
2023-04-09T23:35:54.747Z,101257.84
2023-04-09T23:38:21.485Z,101266.38
2023-04-09T23:40:48.599Z,101256.09
2023-04-09T23:43:15.123Z,101263.09
2023-04-09T23:45:42.751Z,101267.84
2023-04-09T23:48:09.792Z,101263.94
2023-04-09T23:50:39.788Z,101268.66
2023-04-09T23:53:06.686Z,101266.19
2023-04-09T23:55:34.196Z,101268.47
2023-04-09T23:58:00.989Z,101265.19
